Time,TemperatureF,DewpointF,PressureIn,WindDirection,WindDirectionDegrees,WindSpeedMPH,WindSpeedGustMPH,Humidity,HourlyPrecipIn,Conditions,Clouds,dailyrainin,SoftwareType,DateUTC
2013-11-19 00:00:00,37.1,30.6,30.20,North,355,0.0,1.0,77,0.00,,,0.00,Wunderground v.1.15,2013-11-19 07:00:00,
2013-11-19 00:10:00,36.6,30.7,30.20,North,355,0.0,0.0,79,0.00,,,0.00,Wunderground v.1.15,2013-11-19 07:10:00,
2013-11-19 00:20:00,36.4,30.8,30.20,North,355,0.0,0.0,80,0.00,,,0.00,Wunderground v.1.15,2013-11-19 07:20:00,
2013-11-19 00:30:00,36.3,30.4,30.20,North,355,0.0,0.0,79,0.00,,,0.00,Wunderground v.1.15,2013-11-19 07:30:00,
2013-11-19 00:40:00,36.1,30.5,30.20,North,355,0.0,0.0,80,0.00,,,0.00,Wunderground v.1.15,2013-11-19 07:40:00,
2013-11-19 00:50:00,35.7,30.1,30.20,North,355,0.0,0.0,80,0.00,,,0.00,Wunderground v.1.15,2013-11-19 07:50:00,
2013-11-19 01:00:00,35.6,30.3,30.20,North,355,0.0,0.0,81,0.00,,,0.00,Wunderground v.1.15,2013-11-19 08:00:00,
2013-11-19 01:10:00,35.5,30.2,30.20,North,355,0.0,0.0,81,0.00,,,0.00,Wunderground v.1.15,2013-11-19 08:10:00,
2013-11-19 01:20:00,35.1,29.9,30.20,North,355,0.0,0.0,81,0.00,,,0.00,Wunderground v.1.15,2013-11-19 08:20:00,
2013-11-19 01:30:00,34.8,29.9,30.20,North,355,0.0,0.0,82,0.00,,,0.00,Wunderground v.1.15,2013-11-19 08:30:00,
2013-11-19 01:40:00,35.1,30.5,30.20,North,355,0.0,0.0,83,0.00,,,0.00,Wunderground v.1.15,2013-11-19 08:40:00,
2013-11-19 01:50:00,35.5,30.2,30.20,North,355,0.0,0.0,81,0.00,,,0.00,Wunderground v.1.15,2013-11-19 08:50:00,
2013-11-19 02:00:00,35.3,30.1,30.20,North,355,0.0,0.0,81,0.00,,,0.00,Wunderground v.1.15,2013-11-19 09:00:00,
2013-11-19 02:10:00,34.9,29.7,30.20,North,355,0.0,0.0,81,0.00,,,0.00,Wunderground v.1.15,2013-11-19 09:10:00,
2013-11-19 02:20:00,34.4,29.2,30.19,North,355,0.0,0.0,81,0.00,,,0.00,Wunderground v.1.15,2013-11-19 09:20:00,
2013-11-19 02:30:00,33.9,29.3,30.19,North,355,0.0,0.0,83,0.00,,,0.00,Wunderground v.1.15,2013-11-19 09:30:00,
2013-11-19 02:40:00,33.8,29.5,30.19,North,355,0.0,0.0,84,0.00,,,0.00,Wunderground v.1.15,2013-11-19 09:40:00,
2013-11-19 02:50:00,34.1,29.8,30.19,North,355,0.0,1.0,84,0.00,,,0.00,Wunderground v.1.15,2013-11-19 09:50:00,
2013-11-19 03:00:00,34.3,29.7,30.18,North,355,0.0,0.0,83,0.00,,,0.00,Wunderground v.1.15,2013-11-19 10:00:00,
2013-11-19 03:10:00,34.1,29.5,30.18,North,355,0.0,0.0,83,0.00,,,0.00,Wunderground v.1.15,2013-11-19 10:10:00,
2013-11-19 03:20:00,33.8,29.2,30.18,North,355,0.0,0.0,83,0.00,,,0.00,Wunderground v.1.15,2013-11-19 10:20:00,
2013-11-19 03:30:00,33.7,29.4,30.17,North,355,0.0,0.0,84,0.00,,,0.00,Wunderground v.1.15,2013-11-19 10:30:00,
2013-11-19 03:40:00,33.5,29.2,30.17,North,355,0.0,0.0,84,0.00,,,0.00,Wunderground v.1.15,2013-11-19 10:40:00,
2013-11-19 03:50:00,33.3,29.0,30.17,North,355,0.0,0.0,84,0.00,,,0.00,Wunderground v.1.15,2013-11-19 10:50:00,
2013-11-19 04:00:00,33.2,29.2,30.17,North,355,0.0,0.0,85,0.00,,,0.00,Wunderground v.1.15,2013-11-19 11:00:00,
2013-11-19 04:10:00,33.1,29.1,30.17,North,355,0.0,0.0,85,0.00,,,0.00,Wunderground v.1.15,2013-11-19 11:10:00,
2013-11-19 04:20:00,33.1,29.4,30.17,North,355,0.0,0.0,86,0.00,,,0.00,Wunderground v.1.15,2013-11-19 11:20:00,
2013-11-19 04:30:00,33.0,29.3,30.17,North,355,0.0,0.0,86,0.00,,,0.00,Wunderground v.1.15,2013-11-19 11:30:00,
2013-11-19 04:40:00,32.8,29.1,30.17,North,355,0.0,0.0,86,0.00,,,0.00,Wunderground v.1.15,2013-11-19 11:40:00,
2013-11-19 04:50:00,32.3,28.6,30.17,North,355,0.0,0.0,86,0.00,,,0.00,Wunderground v.1.15,2013-11-19 11:50:00,
2013-11-19 05:00:00,31.8,28.1,30.17,North,355,0.0,0.0,86,0.00,,,0.00,Wunderground v.1.15,2013-11-19 12:00:00,
2013-11-19 05:10:00,31.7,28.3,30.17,North,355,0.0,0.0,87,0.00,,,0.00,Wunderground v.1.15,2013-11-19 12:10:00,
2013-11-19 05:20:00,31.6,28.2,30.16,North,355,0.0,0.0,87,0.00,,,0.00,Wunderground v.1.15,2013-11-19 12:20:00,
2013-11-19 05:30:00,31.6,28.2,30.16,North,355,0.0,0.0,87,0.00,,,0.00,Wunderground v.1.15,2013-11-19 12:30:00,
2013-11-19 05:40:00,31.3,27.9,30.16,North,355,0.0,0.0,87,0.00,,,0.00,Wunderground v.1.15,2013-11-19 12:40:00,
2013-11-19 05:50:00,31.6,28.5,30.16,North,355,0.0,0.0,88,0.00,,,0.00,Wunderground v.1.15,2013-11-19 12:50:00,
2013-11-19 06:00:00,31.7,28.6,30.16,North,355,0.0,0.0,88,0.00,,,0.00,Wunderground v.1.15,2013-11-19 13:00:00,
2013-11-19 06:10:00,32.1,28.9,30.16,North,355,0.0,0.0,88,0.00,,,0.00,Wunderground v.1.15,2013-11-19 13:10:00,
2013-11-19 06:20:00,32.4,29.0,30.15,North,355,0.0,1.0,87,0.00,,,0.00,Wunderground v.1.15,2013-11-19 13:20:00,
2013-11-19 06:30:00,32.4,28.7,30.16,North,355,0.0,0.0,86,0.00,,,0.00,Wunderground v.1.15,2013-11-19 13:30:00,
2013-11-19 06:40:00,32.0,28.6,30.17,North,355,1.0,1.0,87,0.00,,,0.00,Wunderground v.1.15,2013-11-19 13:40:00,
2013-11-19 06:50:00,31.7,28.3,30.17,North,355,0.0,0.0,87,0.00,,,0.00,Wunderground v.1.15,2013-11-19 13:50:00,
2013-11-19 07:00:00,31.5,28.1,30.17,North,355,0.0,0.0,87,0.00,,,0.00,Wunderground v.1.15,2013-11-19 14:00:00,
2013-11-19 07:10:00,31.4,28.3,30.18,North,355,0.0,0.0,88,0.00,,,0.00,Wunderground v.1.15,2013-11-19 14:10:00,
2013-11-19 07:20:00,31.9,28.8,30.18,North,355,0.0,0.0,88,0.00,,,0.00,Wunderground v.1.15,2013-11-19 14:20:00,
2013-11-19 07:30:00,32.8,29.4,30.17,North,355,0.0,0.0,87,0.00,,,0.00,Wunderground v.1.15,2013-11-19 14:30:00,
2013-11-19 07:40:00,34.1,30.1,30.17,North,355,0.0,0.0,85,0.00,,,0.00,Wunderground v.1.15,2013-11-19 14:40:00,
2013-11-19 07:50:00,35.7,30.7,30.17,North,355,0.0,0.0,82,0.00,,,0.00,Wunderground v.1.15,2013-11-19 14:50:00,
2013-11-19 08:00:00,36.8,30.9,30.17,North,355,0.0,0.0,79,0.00,,,0.00,Wunderground v.1.15,2013-11-19 15:00:00,
2013-11-19 08:10:00,37.5,30.9,30.16,North,355,1.0,1.0,77,0.00,,,0.00,Wunderground v.1.15,2013-11-19 15:10:00,
2013-11-19 08:20:00,38.1,31.2,30.17,North,355,1.0,2.0,76,0.00,,,0.00,Wunderground v.1.15,2013-11-19 15:20:00,
2013-11-19 08:30:00,39.3,31.7,30.16,North,355,1.0,2.0,74,0.00,,,0.00,Wunderground v.1.15,2013-11-19 15:30:00,
2013-11-19 08:40:00,40.5,31.8,30.16,North,355,2.0,3.0,71,0.00,,,0.00,Wunderground v.1.15,2013-11-19 15:40:00,
2013-11-19 08:50:00,41.2,32.5,30.17,North,355,1.0,3.0,71,0.00,,,0.00,Wunderground v.1.15,2013-11-19 15:50:00,
2013-11-19 09:00:00,40.9,32.2,30.16,North,355,3.0,3.0,71,0.00,,,0.00,Wunderground v.1.15,2013-11-19 16:00:00,
2013-11-19 12:30:00,57.4,33.3,30.02,South,184,2.0,2.0,40,0.00,,,0.00,Wunderground v.1.15,2013-11-19 19:30:00,
2013-11-19 12:40:00,58.0,33.8,30.02,South,184,2.0,6.0,40,0.00,,,0.00,Wunderground v.1.15,2013-11-19 19:40:00,
2013-11-19 12:50:00,58.0,33.2,30.01,South,174,3.0,3.0,39,0.00,,,0.00,Wunderground v.1.15,2013-11-19 19:50:00,
2013-11-19 13:00:00,58.3,33.4,30.00,South,189,4.0,4.0,39,0.00,,,0.00,Wunderground v.1.15,2013-11-19 20:00:00,
2013-11-19 13:10:00,59.2,33.6,30.00,South,190,2.0,2.0,38,0.00,,,0.00,Wunderground v.1.15,2013-11-19 20:10:00,
2013-11-19 13:20:00,60.3,33.9,30.00,South,191,2.0,2.0,37,0.00,,,0.00,Wunderground v.1.15,2013-11-19 20:20:00,
2013-11-19 13:30:00,60.6,34.2,29.99,SSW,192,2.0,3.0,37,0.00,,,0.00,Wunderground v.1.15,2013-11-19 20:30:00,
2013-11-19 13:40:00,60.0,33.6,29.98,South,183,2.0,2.0,37,0.00,,,0.00,Wunderground v.1.15,2013-11-19 20:40:00,
2013-11-19 13:50:00,60.7,33.6,29.97,SSW,195,3.0,8.0,36,0.00,,,0.00,Wunderground v.1.15,2013-11-19 20:50:00,
2013-11-19 14:00:00,60.6,34.2,29.96,SSE,158,4.0,4.0,37,0.00,,,0.00,Wunderground v.1.15,2013-11-19 21:00:00,
2013-11-19 14:10:00,61.6,33.7,29.96,SSE,167,3.0,8.0,35,0.00,,,0.00,Wunderground v.1.15,2013-11-19 21:10:00,
2013-11-19 14:20:00,61.8,33.8,29.96,SSE,156,3.0,8.0,35,0.00,,,0.00,Wunderground v.1.15,2013-11-19 21:20:00,
2013-11-19 14:30:00,61.7,33.7,29.96,SSE,165,3.0,3.0,35,0.00,,,0.00,Wunderground v.1.15,2013-11-19 21:30:00,
2013-11-19 14:40:00,61.7,33.7,29.95,SSE,165,3.0,3.0,35,0.00,,,0.00,Wunderground v.1.15,2013-11-19 21:40:00,
2013-11-19 14:50:00,62.6,33.8,29.95,SSE,165,2.0,8.0,34,0.00,,,0.00,Wunderground v.1.15,2013-11-19 21:50:00,
2013-11-19 15:00:00,62.3,33.6,29.95,SSE,162,3.0,3.0,34,0.00,,,0.00,Wunderground v.1.15,2013-11-19 22:00:00,
2013-11-19 15:10:00,62.2,33.5,29.94,SSE,167,4.0,4.0,34,0.00,,,0.00,Wunderground v.1.15,2013-11-19 22:10:00,
2013-11-19 15:20:00,62.4,33.6,29.94,SSE,159,2.0,8.0,34,0.00,,,0.00,Wunderground v.1.15,2013-11-19 22:20:00,
2013-11-19 15:30:00,62.5,33.7,29.94,SSE,154,2.0,8.0,34,0.00,,,0.00,Wunderground v.1.15,2013-11-19 22:30:00,
2013-11-19 15:40:00,63.0,33.4,29.93,SSE,154,2.0,8.0,33,0.00,,,0.00,Wunderground v.1.15,2013-11-19 22:40:00,
2013-11-19 15:50:00,62.2,34.2,29.92,ESE,116,3.0,3.0,35,0.00,,,0.00,Wunderground v.1.15,2013-11-19 22:50:00,
2013-11-19 16:00:00,62.5,33.7,29.92,ESE,119,2.0,8.0,34,0.00,,,0.00,Wunderground v.1.15,2013-11-19 23:00:00,
2013-11-19 16:10:00,62.5,34.5,29.92,SE,133,3.0,3.0,35,0.00,,,0.00,Wunderground v.1.15,2013-11-19 23:10:00,
2013-11-19 16:20:00,62.3,35.0,29.92,SE,133,2.0,8.0,36,0.00,,,0.00,Wunderground v.1.15,2013-11-19 23:20:00,
2013-11-19 16:30:00,61.8,34.5,29.92,SE,134,2.0,8.0,36,0.00,,,0.00,Wunderground v.1.15,2013-11-19 23:30:00,
2013-11-19 16:40:00,61.3,34.8,29.93,SE,134,1.0,1.0,37,0.00,,,0.00,Wunderground v.1.15,2013-11-19 23:40:00,
2013-11-19 16:50:00,60.9,35.1,29.92,SE,133,1.0,8.0,38,0.00,,,0.00,Wunderground v.1.15,2013-11-19 23:50:00,
2013-11-19 17:00:00,60.4,35.9,29.92,SE,134,2.0,2.0,40,0.00,,,0.00,Wunderground v.1.15,2013-11-20 00:00:00,
2013-11-19 17:10:00,60.0,35.6,29.93,SE,134,1.0,1.0,40,0.00,,,0.00,Wunderground v.1.15,2013-11-20 00:10:00,
2013-11-19 17:20:00,59.6,35.9,29.93,SE,134,0.0,8.0,41,0.00,,,0.00,Wunderground v.1.15,2013-11-20 00:20:00,
2013-11-19 17:30:00,59.2,36.1,29.94,SE,134,0.0,8.0,42,0.00,,,0.00,Wunderground v.1.15,2013-11-20 00:30:00,
2013-11-19 17:40:00,58.4,36.0,29.94,SE,134,0.0,8.0,43,0.00,,,0.00,Wunderground v.1.15,2013-11-20 00:40:00,
2013-11-19 17:50:00,57.5,36.3,29.94,SE,134,0.0,8.0,45,0.00,,,0.00,Wunderground v.1.15,2013-11-20 00:50:00,
2013-11-19 18:00:00,56.6,36.0,29.95,SE,134,0.0,8.0,46,0.00,,,0.00,Wunderground v.1.15,2013-11-20 01:00:00,
2013-11-19 18:10:00,55.9,36.5,29.95,SE,134,0.0,8.0,48,0.00,,,0.00,Wunderground v.1.15,2013-11-20 01:10:00,
2013-11-19 18:20:00,55.1,36.3,29.94,SE,133,0.0,8.0,49,0.00,,,0.00,Wunderground v.1.15,2013-11-20 01:20:00,
2013-11-19 18:30:00,54.6,36.3,29.95,SE,134,0.0,8.0,50,0.00,,,0.00,Wunderground v.1.15,2013-11-20 01:30:00,
2013-11-19 18:40:00,54.1,36.4,29.95,SE,134,0.0,8.0,51,0.00,,,0.00,Wunderground v.1.15,2013-11-20 01:40:00,
2013-11-19 18:50:00,53.6,36.4,29.95,SE,134,0.0,8.0,52,0.00,,,0.00,Wunderground v.1.15,2013-11-20 01:50:00,
2013-11-19 19:00:00,53.3,36.1,29.95,SE,134,0.0,8.0,52,0.00,,,0.00,Wunderground v.1.15,2013-11-20 02:00:00,
2013-11-19 19:10:00,53.0,36.3,29.94,SE,133,0.0,8.0,53,0.00,,,0.00,Wunderground v.1.15,2013-11-20 02:10:00,
2013-11-19 19:20:00,52.7,36.0,29.94,SE,133,0.0,8.0,53,0.00,,,0.00,Wunderground v.1.15,2013-11-20 02:20:00,
2013-11-19 19:30:00,52.6,35.9,29.94,SE,134,0.0,8.0,53,0.00,,,0.00,Wunderground v.1.15,2013-11-20 02:30:00,
2013-11-19 19:40:00,52.5,35.8,29.94,SE,134,0.0,8.0,53,0.00,,,0.00,Wunderground v.1.15,2013-11-20 02:40:00,
2013-11-19 19:50:00,52.2,36.0,29.94,SE,133,0.0,8.0,54,0.00,,,0.00,Wunderground v.1.15,2013-11-20 02:50:00,
2013-11-19 20:00:00,51.7,36.0,29.93,SE,134,0.0,8.0,55,0.00,,,0.00,Wunderground v.1.15,2013-11-20 03:00:00,
2013-11-19 20:10:00,51.2,36.0,29.93,SE,134,0.0,8.0,56,0.00,,,0.00,Wunderground v.1.15,2013-11-20 03:10:00,
2013-11-19 20:20:00,50.8,36.1,29.93,SE,133,0.0,8.0,57,0.00,,,0.00,Wunderground v.1.15,2013-11-20 03:20:00,
2013-11-19 20:30:00,50.3,36.1,29.93,SE,133,0.0,8.0,58,0.00,,,0.00,Wunderground v.1.15,2013-11-20 03:30:00,
2013-11-19 20:40:00,49.4,36.1,29.93,SE,133,0.0,8.0,60,0.00,,,0.00,Wunderground v.1.15,2013-11-20 03:40:00,
2013-11-19 20:50:00,48.5,36.1,29.93,SE,134,0.0,8.0,62,0.00,,,0.00,Wunderground v.1.15,2013-11-20 03:50:00,
2013-11-19 21:00:00,48.5,36.1,29.93,SE,134,0.0,8.0,62,0.00,,,0.00,Wunderground v.1.15,2013-11-20 04:00:00,
2013-11-19 21:10:00,48.5,36.5,29.93,SE,134,0.0,8.0,63,0.00,,,0.00,Wunderground v.1.15,2013-11-20 04:10:00,
2013-11-19 21:20:00,48.6,36.6,29.94,SE,133,0.0,8.0,63,0.00,,,0.00,Wunderground v.1.15,2013-11-20 04:20:00,
2013-11-19 21:30:00,48.1,36.1,29.94,SE,133,0.0,8.0,63,0.00,,,0.00,Wunderground v.1.15,2013-11-20 04:30:00,
2013-11-19 21:40:00,47.6,36.0,29.94,SE,134,0.0,8.0,64,0.00,,,0.00,Wunderground v.1.15,2013-11-20 04:40:00,
2013-11-19 21:50:00,47.3,36.1,29.94,SE,133,0.0,8.0,65,0.00,,,0.00,Wunderground v.1.15,2013-11-20 04:50:00,
2013-11-19 22:00:00,47.2,36.4,29.94,SE,134,0.0,8.0,66,0.00,,,0.00,Wunderground v.1.15,2013-11-20 05:00:00,
2013-11-19 22:10:00,47.0,36.2,29.94,SE,133,0.0,8.0,66,0.00,,,0.00,Wunderground v.1.15,2013-11-20 05:10:00,
2013-11-19 22:20:00,46.7,36.3,29.93,SE,133,0.0,8.0,67,0.00,,,0.00,Wunderground v.1.15,2013-11-20 05:20:00,
2013-11-19 22:30:00,46.4,36.0,29.93,SE,134,0.0,8.0,67,0.00,,,0.00,Wunderground v.1.15,2013-11-20 05:30:00,
2013-11-19 22:40:00,46.3,35.9,29.94,SE,133,0.0,8.0,67,0.00,,,0.00,Wunderground v.1.15,2013-11-20 05:40:00,
2013-11-19 22:50:00,47.7,36.1,29.93,SE,134,1.0,8.0,64,0.00,,,0.00,Wunderground v.1.15,2013-11-20 05:50:00,
2013-11-19 23:00:00,48.7,36.3,29.93,SE,134,2.0,2.0,62,0.00,,,0.00,Wunderground v.1.15,2013-11-20 06:00:00,
2013-11-19 23:10:00,48.8,35.9,29.93,SE,133,1.0,1.0,61,0.00,,,0.00,Wunderground v.1.15,2013-11-20 06:10:00,
2013-11-19 23:20:00,48.6,35.7,29.93,SE,133,0.0,8.0,61,0.00,,,0.00,Wunderground v.1.15,2013-11-20 06:20:00,
2013-11-19 23:30:00,48.3,35.9,29.93,SE,133,0.0,8.0,62,0.00,,,0.00,Wunderground v.1.15,2013-11-20 06:30:00,
2013-11-19 23:40:00,48.2,35.8,29.93,SE,134,0.0,8.0,62,0.00,,,0.00,Wunderground v.1.15,2013-11-20 06:40:00,
2013-11-19 23:50:00,48.0,35.6,29.93,SE,134,0.0,8.0,62,0.00,,,0.00,Wunderground v.1.15,2013-11-20 06:50:00,